Minaki, Canada
Current Conditions -  °F | °C
As of 3:00 PM on Friday 24 Oct 2014 (Local Time) from CYQK Reporting Station
Broken Clouds Broken Clouds  
Wind Chill: 57°   Ceiling: 21000
Heat Index: 57°   Visibility: 15mi
Dew Point: 43°   Wind: 16mph
Humidity: 59%   Direction: 200°SSW
Pressure: 29.61"   Gusts: NA
Location:  49.99°N, 94.67°W
Report Text: CYQK 242000Z 20014KT 15SM SCT110 BKN210 14/06 A2961 RMK AC3CI4 SLP033 DENSITY ALT 1800FT
Loading
Personal Weather Stations






























Interactive Weather Map
Tropical Storm Tracking
New forecast layout! Learn more

10-Day Weather Forecast

Advertisements
Track Severe Weather on mobile